Accueil
METAR-TAF:

METAR-TAF

Aéroports :

Aéroport de Vérone

Vérone, Italie

latitude: 45-23N, longitude: 010-52E, altitude: 67 m

Observation

Le bulletin a été fait il y a 21 minutes, à 10:20 UTC
Vent 4 kt de sud/sud-est, variant entre est et sud-ouest
Température 18°C
Humidité 68%
Pression 1008 hPa
Visibilité 10 km ou plus
Nuages épars à une hauteur de 3000 ft

METAR: LIPX 141020Z 16004KT 080V230 9999 SCT030 18/12 Q1008

Heure: 12:41 (10:41 UTC)

Prévision

Le bulletin a été fait il y a 2 heures et 41 minutes, à 08:00 UTC
Prévision valable du 14 à 09 UTC au 14 à 18 UTC
Vent 5 kt de direction variable
Visibilité 10 km ou plus
Nuages épars à une hauteur de 3000 ft
Temporairement
du 14 à 10 UTC au 14 à 15 UTC
Visibilité: 4000 m
orage, pluie

TAF: LIPX 140800Z 1409/1418 VRB05KT 9999 SCT030 TEMPO 1410/1415 4000 TSRA

Observations et prévisions météorologiques de plus de 4000 aéroports (messages METAR et TAF).

Les stations disponibles sont représentées par des disques jaunes et rouges sur la carte.

Passer la souris dessus pour voir le nom de la station.

Cliquer dessus pour voir les observations et prévisions météorologiques.

Pour changer de carte: cliquez sur les boutons verts avec une croix noire pour zoomer, sur le bouton vert avec un tiret pour effectuer un zoom arrière, ou sur les flèches vertes pour les cartes adjacentes.


METAR-TAF: